Time;durP1;ratioP1;P1;durP2;ratioP2;P2;SDS_P1;SDS_P2;PMS_P1;PMS_P2;Temp;Humidity;BMP_temperature;BMP_pressure;BME280_temperature;BME280_humidity;BME280_pressure;Samples;Min_cycle;Max_cycle;Signal;HPM_P1;HPM_P2
2021/01/10 00:02:24;;;;;;;58.80;28.93;;;;;;;0.50;92.88;101089.59;5062309;28;20465;-67
2021/01/10 00:04:51;;;;;;;62.13;28.57;;;;;;;0.54;93.42;101085.13;5063532;28;20803;-67
2021/01/10 00:07:22;;;;;;;60.40;29.00;;;;;;;0.60;93.45;101084.88;5060595;28;20519;-67
2021/01/10 00:09:48;;;;;;;51.10;28.50;;;;;;;0.71;93.11;101089.75;5063250;28;20552;-66
2021/01/10 00:12:15;;;;;;;65.63;29.77;;;;;;;0.81;92.73;101088.50;5062235;28;20520;-67
2021/01/10 00:14:41;;;;;;;62.77;30.90;;;;;;;0.72;92.65;101087.06;5062217;28;20484;-67
2021/01/10 00:17:08;;;;;;;65.73;30.27;;;;;;;0.85;92.65;101089.22;5060032;28;20484;-67
2021/01/10 00:19:34;;;;;;;61.10;30.13;;;;;;;0.90;92.75;101085.53;5063191;28;20453;-66
2021/01/10 00:22:01;;;;;;;64.57;30.13;;;;;;;0.89;92.47;101073.28;5060407;28;20571;-67
2021/01/10 00:24:27;;;;;;;61.63;29.10;;;;;;;0.90;92.47;101080.25;5063587;28;20441;-66
2021/01/10 00:26:53;;;;;;;61.90;31.90;;;;;;;0.98;92.57;101082.59;5061795;28;20484;-67
2021/01/10 00:29:19;;;;;;;66.00;32.87;;;;;;;1.00;91.87;101080.75;5050361;28;20493;-67
2021/01/10 00:31:45;;;;;;;59.57;30.50;;;;;;;1.06;92.02;101080.53;5046596;28;20504;-66
2021/01/10 00:34:11;;;;;;;69.53;30.97;;;;;;;0.96;92.41;101078.31;5063033;28;20473;-67
2021/01/10 00:36:38;;;;;;;60.40;32.40;;;;;;;1.06;91.88;101075.25;5059953;28;20544;-67
2021/01/10 00:39:05;;;;;;;57.03;29.07;;;;;;;1.05;92.02;101085.84;5063220;28;20444;-67
2021/01/10 00:41:36;;;;;;;67.23;29.80;;;;;;;1.02;91.99;101086.81;5060932;28;20472;-67
2021/01/10 00:44:03;;;;;;;68.03;30.23;;;;;;;1.11;91.84;101086.47;5062460;28;20899;-67
2021/01/10 00:46:29;;;;;;;63.50;31.10;;;;;;;1.02;91.99;101078.06;5056551;28;20492;-67
2021/01/10 00:48:55;;;;;;;69.70;31.57;;;;;;;1.06;91.95;101083.16;5042868;28;20454;-67
2021/01/10 00:51:21;;;;;;;69.43;31.80;;;;;;;1.02;92.31;101089.44;5042923;28;20477;-67
2021/01/10 00:53:47;;;;;;;58.03;29.63;;;;;;;1.00;91.73;101086.03;5062771;28;20469;-67
2021/01/10 00:56:14;;;;;;;65.17;30.23;;;;;;;1.00;92.02;101088.66;5060804;28;20504;-67
2021/01/10 00:58:40;;;;;;;68.10;31.53;;;;;;;1.09;91.55;101090.94;5061398;28;20937;-67
2021/01/10 01:01:07;;;;;;;72.73;31.17;;;;;;;1.04;91.68;101092.03;5060749;28;20472;-67
2021/01/10 01:03:33;;;;;;;67.00;29.03;;;;;;;1.00;91.81;101086.03;5062688;28;20425;-67
2021/01/10 01:05:59;;;;;;;71.80;29.87;;;;;;;1.02;91.58;101092.06;5059399;28;20858;-67
2021/01/10 01:08:25;;;;;;;62.10;31.10;;;;;;;1.00;91.90;101085.16;5061802;28;20489;-67
2021/01/10 01:10:52;;;;;;;61.67;29.20;;;;;;;1.07;91.55;101090.13;5060551;28;21043;-67
2021/01/10 01:13:19;;;;;;;59.53;29.10;;;;;;;1.08;91.09;101089.22;5061615;28;20476;-67
2021/01/10 01:15:50;;;;;;;62.57;29.47;;;;;;;1.01;91.60;101085.13;5060528;28;21013;-67
2021/01/10 01:18:17;;;;;;;66.90;32.03;;;;;;;1.10;91.56;101090.00;5062013;28;20500;-67
2021/01/10 01:20:43;;;;;;;67.97;32.30;;;;;;;1.15;91.27;101084.56;5059676;28;20888;-67
2021/01/10 01:23:09;;;;;;;66.37;29.83;;;;;;;1.09;91.42;101088.31;5061672;28;20449;-67
2021/01/10 01:25:36;;;;;;;62.83;30.40;;;;;;;1.07;91.83;101097.19;5060275;28;20471;-66
2021/01/10 01:28:02;;;;;;;73.13;32.70;;;;;;;1.10;91.81;101092.66;5061282;28;20449;-66
2021/01/10 01:30:29;;;;;;;61.03;31.50;;;;;;;1.19;91.39;101091.44;5059773;28;20491;-67
2021/01/10 01:32:56;;;;;;;70.83;31.53;;;;;;;1.18;91.92;101099.38;5061910;28;20993;-67
2021/01/10 01:35:22;;;;;;;81.50;35.00;;;;;;;1.09;91.96;101095.34;5058943;28;20492;-66
2021/01/10 01:37:48;;;;;;;79.77;35.17;;;;;;;1.15;92.09;101105.66;5061415;28;20499;-66
2021/01/10 01:40:14;;;;;;;82.60;33.90;;;;;;;1.20;92.15;101105.44;5060158;28;20448;-66
2021/01/10 01:42:40;;;;;;;78.60;34.47;;;;;;;1.18;92.16;101107.28;5061611;28;20904;-67
2021/01/10 01:45:08;;;;;;;78.17;34.13;;;;;;;1.17;91.80;101097.69;5059749;28;20484;-67
2021/01/10 01:47:36;;;;;;;77.20;34.83;;;;;;;1.18;92.08;101107.28;5060937;28;20477;-67
2021/01/10 01:50:04;;;;;;;80.40;34.83;;;;;;;1.17;92.02;101102.97;5060818;28;20445;-67
2021/01/10 01:52:30;;;;;;;84.70;36.97;;;;;;;1.14;92.21;101109.19;5056954;28;20491;-66
2021/01/10 01:54:57;;;;;;;96.63;36.43;;;;;;;1.22;91.43;101098.38;5041127;28;20438;-67
2021/01/10 01:57:23;;;;;;;81.50;32.20;;;;;;;1.16;91.71;101109.97;5041258;28;20579;-67
2021/01/10 01:59:49;;;;;;;80.20;33.43;;;;;;;1.30;91.83;101109.44;5062681;28;20472;-67
2021/01/10 02:02:15;;;;;;;81.43;34.37;;;;;;;1.24;91.59;101109.69;5059830;28;20481;-66
2021/01/10 02:04:48;;;;;;;83.33;35.60;;;;;;;1.26;91.61;101099.97;5062258;28;20473;-67
2021/01/10 02:07:19;;;;;;;68.43;33.63;;;;;;;1.36;91.12;101103.94;5060247;28;20508;-67
2021/01/10 02:09:48;;;;;;;81.43;33.97;;;;;;;1.28;91.25;101098.13;5062440;28;20449;-67
2021/01/10 02:12:15;;;;;;;78.27;32.13;;;;;;;1.25;91.43;101101.75;5060301;28;20529;-67
2021/01/10 02:14:44;;;;;;;82.23;34.67;;;;;;;1.22;91.69;101107.13;5062009;28;20461;-67
2021/01/10 02:17:11;;;;;;;93.47;35.33;;;;;;;1.28;91.26;101098.97;5057741;28;20538;-65
2021/01/10 02:19:44;;;;;;;84.57;33.80;;;;;;;1.24;91.70;101099.16;5058452;28;20527;-66
2021/01/10 02:22:11;;;;;;;88.50;34.57;;;;;;;1.36;91.13;101092.56;5058918;28;20993;-66
2021/01/10 02:24:38;;;;;;;72.10;32.83;;;;;;;1.41;90.75;101095.88;5061610;28;20452;-67
2021/01/10 02:27:05;;;;;;;76.53;34.83;;;;;;;1.33;90.61;101096.16;5059587;28;20575;-66
2021/01/10 02:29:33;;;;;;;74.87;32.93;;;;;;;1.40;90.51;101100.25;5061468;28;20472;-67
2021/01/10 02:32:02;;;;;;;67.70;31.07;;;;;;;1.36;91.05;101103.94;5059875;28;20520;-67
2021/01/10 02:34:28;;;;;;;80.07;34.30;;;;;;;1.34;90.92;101102.28;5059077;28;20469;-67
2021/01/10 02:37:10;;;;;;;72.63;32.80;;;;;;;1.32;91.12;101107.63;5059647;28;21212;-66
2021/01/10 02:39:46;;;;;;;71.33;34.27;;;;;;;1.30;91.30;101106.81;5063138;28;20441;-66
2021/01/10 02:42:19;;;;;;;67.97;31.60;;;;;;;1.32;91.38;101099.72;5062721;28;20472;-67
2021/01/10 02:44:52;;;;;;;62.30;31.10;;;;;;;1.26;91.81;101099.97;5065367;28;20445;-67
2021/01/10 02:47:18;;;;;;;73.33;34.83;;;;;;;1.28;91.15;101098.13;5062874;28;20504;-66
2021/01/10 02:49:44;;;;;;;63.40;30.93;;;;;;;1.27;91.47;101096.41;5064641;28;20459;-67
2021/01/10 02:52:10;;;;;;;70.67;30.00;;;;;;;1.38;91.02;101094.19;5062146;28;20544;-66
2021/01/10 02:54:37;;;;;;;67.60;29.63;;;;;;;1.36;90.91;101103.09;5065196;28;21214;-67
2021/01/10 02:57:09;;;;;;;67.57;31.87;;;;;;;1.34;91.27;101089.09;5062360;28;20516;-67
2021/01/10 02:59:38;;;;;;;64.30;32.90;;;;;;;1.36;90.74;101089.94;5064637;28;20479;-66
2021/01/10 03:02:05;;;;;;;56.53;28.33;;;;;;;1.38;90.49;101094.19;5063002;28;20757;-67
2021/01/10 03:04:32;;;;;;;60.87;28.07;;;;;;;1.28;90.60;101090.22;5064173;28;20488;-67
2021/01/10 03:06:59;;;;;;;62.40;29.43;;;;;;;1.24;90.57;101094.75;5061263;28;20527;-67
2021/01/10 03:09:25;;;;;;;55.57;28.70;;;;;;;1.23;90.98;101098.31;5064097;28;20471;-67
2021/01/10 03:11:53;;;;;;;55.57;28.33;;;;;;;1.18;90.87;101099.38;5061213;28;20500;-67
2021/01/10 03:14:20;;;;;;;49.97;26.47;;;;;;;1.19;90.84;101098.47;5064083;28;20508;-67
2021/01/10 03:16:46;;;;;;;63.13;30.33;;;;;;;1.20;90.93;101097.53;5061880;28;20562;-66
2021/01/10 03:19:13;;;;;;;58.87;28.87;;;;;;;1.27;90.63;101091.16;5065551;28;20432;-67
2021/01/10 03:21:39;;;;;;;54.47;26.23;;;;;;;1.19;90.71;101095.84;5062536;28;20508;-66
2021/01/10 03:24:06;;;;;;;54.60;30.10;;;;;;;1.26;90.67;101087.63;5065428;28;20441;-66
2021/01/10 03:26:32;;;;;;;52.67;25.53;;;;;;;1.27;90.52;101097.25;5063197;28;20629;-67
2021/01/10 03:28:58;;;;;;;56.93;28.17;;;;;;;1.33;90.59;101095.31;5064865;28;20544;-67
2021/01/10 03:31:25;;;;;;;49.27;27.23;;;;;;;1.34;90.25;101089.09;5063268;28;20480;-67
2021/01/10 03:33:51;;;;;;;49.60;25.90;;;;;;;1.31;90.63;101087.47;5064617;28;20552;-66
2021/01/10 03:36:17;;;;;;;48.00;27.83;;;;;;;1.35;90.07;101080.28;5062621;28;20484;-66
2021/01/10 03:38:43;;;;;;;50.10;27.50;;;;;;;1.44;89.57;101085.19;5064962;28;20539;-66
2021/01/10 03:41:10;;;;;;;47.47;27.40;;;;;;;1.40;90.13;101083.59;5063207;28;20507;-67
2021/01/10 03:43:37;;;;;;;54.20;26.70;;;;;;;1.34;89.82;101084.72;5064228;28;20757;-67
2021/01/10 03:46:04;;;;;;;52.57;28.60;;;;;;;1.23;90.31;101077.25;5062965;28;20465;-67
2021/01/10 03:48:35;;;;;;;48.37;27.37;;;;;;;1.38;90.11;101083.66;5064467;28;20487;-67
2021/01/10 03:51:02;;;;;;;46.30;26.97;;;;;;;1.33;90.37;101077.72;5063095;28;20484;-67
2021/01/10 03:53:28;;;;;;;46.23;25.43;;;;;;;1.44;89.52;101074.66;5063044;28;20558;-67
2021/01/10 03:55:54;;;;;;;47.03;24.80;;;;;;;1.41;89.36;101069.53;5063037;28;20522;-66
2021/01/10 03:58:20;;;;;;;52.30;26.50;;;;;;;1.34;89.95;101075.94;5063954;28;20491;-66
2021/01/10 04:00:46;;;;;;;50.67;27.47;;;;;;;1.30;90.37;101073.44;5062968;28;20496;-67
2021/01/10 04:03:12;;;;;;;59.33;28.63;;;;;;;1.21;91.02;101068.53;5064460;28;20492;-67
2021/01/10 04:05:39;;;;;;;52.57;29.90;;;;;;;1.16;90.97;101075.75;5060857;28;20574;-67
2021/01/10 04:08:07;;;;;;;55.27;27.37;;;;;;;1.25;91.03;101075.41;5063368;28;21035;-67
2021/01/10 04:10:33;;;;;;;57.10;30.33;;;;;;;1.25;91.23;101080.66;5062821;28;20543;-67
2021/01/10 04:12:59;;;;;;;50.83;26.40;;;;;;;1.19;91.02;101073.00;5064118;28;20859;-67
2021/01/10 04:15:25;;;;;;;48.47;27.30;;;;;;;1.26;90.87;101074.47;5061504;28;20496;-68
2021/01/10 04:17:51;;;;;;;45.10;26.93;;;;;;;1.37;90.79;101075.81;5043921;28;20493;-68
2021/01/10 04:20:17;;;;;;;61.27;29.43;;;;;;;1.40;90.35;101071.28;5048437;28;20447;-67
2021/01/10 04:22:44;;;;;;;59.90;28.27;;;;;;;1.40;90.21;101068.66;5063337;28;20503;-68
2021/01/10 04:25:11;;;;;;;55.47;26.53;;;;;;;1.23;90.61;101064.06;5062260;28;20477;-67
2021/01/10 04:27:38;;;;;;;40.70;24.63;;;;;;;1.08;90.87;101070.78;5063654;28;20525;-68
2021/01/10 04:30:06;;;;;;;47.40;26.17;;;;;;;1.22;90.85;101070.25;5061970;28;20936;-64
2021/01/10 04:32:32;;;;;;;55.60;25.83;;;;;;;1.20;91.36;101071.22;5063746;28;20457;-67
2021/01/10 04:34:58;;;;;;;51.70;25.07;;;;;;;1.23;91.16;101069.34;5063909;28;20449;-67
2021/01/10 04:37:24;;;;;;;50.03;28.27;;;;;;;1.20;90.93;101072.09;5061664;28;20532;-67
2021/01/10 04:39:53;;;;;;;44.13;22.60;;;;;;;1.36;89.49;101068.84;5063656;28;20484;-67
2021/01/10 04:42:19;;;;;;;45.00;23.57;;;;;;;1.34;89.78;101075.94;5062248;28;20480;-67
2021/01/10 04:44:45;;;;;;;44.47;23.97;;;;;;;1.23;89.26;101069.34;5063962;28;21019;-67
2021/01/10 04:47:12;;;;;;;41.77;21.00;;;;;;;1.25;89.25;101063.97;5061325;28;20500;-67
2021/01/10 04:49:38;;;;;;;49.93;23.60;;;;;;;1.30;89.38;101062.91;5062980;28;20445;-67
2021/01/10 04:52:06;;;;;;;46.70;26.17;;;;;;;1.26;89.53;101066.56;5061245;28;21088;-67
2021/01/10 04:54:34;;;;;;;46.50;25.07;;;;;;;1.13;90.13;101068.84;5063523;28;20501;-68
2021/01/10 04:57:03;;;;;;;38.27;23.20;;;;;;;1.20;89.85;101072.09;5061521;28;20480;-68
2021/01/10 04:59:30;;;;;;;46.27;25.37;;;;;;;1.20;89.81;101068.56;5063100;28;20544;-68
2021/01/10 05:02:00;;;;;;;45.60;22.93;;;;;;;1.17;89.18;101071.34;5061253;28;20515;-67
2021/01/10 05:04:27;;;;;;;44.17;23.97;;;;;;;1.09;89.46;101066.38;5063694;28;20425;-67
2021/01/10 05:06:54;;;;;;;38.10;21.10;;;;;;;1.02;89.85;101068.38;5060854;28;20568;-66
2021/01/10 05:09:20;;;;;;;42.53;24.97;;;;;;;1.23;88.78;101069.34;5062836;28;20829;-67
2021/01/10 05:11:46;;;;;;;44.33;22.83;;;;;;;1.23;89.20;101068.47;5061569;28;20514;-66
2021/01/10 05:14:14;;;;;;;43.30;22.67;;;;;;;1.16;89.43;101067.84;5062792;28;20511;-67
2021/01/10 05:16:40;;;;;;;39.10;22.40;;;;;;;1.11;89.41;101068.03;5061105;28;20473;-67
2021/01/10 05:19:06;;;;;;;40.47;21.10;;;;;;;1.13;88.58;101065.34;5062682;28;20561;-67
2021/01/10 05:21:32;;;;;;;38.73;19.73;;;;;;;1.19;88.20;101066.88;5060706;28;20480;-67
2021/01/10 05:23:59;;;;;;;38.60;19.80;;;;;;;1.12;88.36;101063.63;5062443;28;20449;-67
2021/01/10 05:26:31;;;;;;;39.80;21.37;;;;;;;1.04;89.09;101066.56;5061165;28;20544;-66
2021/01/10 05:28:58;;;;;;;36.73;22.20;;;;;;;1.06;89.00;101064.72;5063131;28;20457;-68
2021/01/10 05:31:39;;;;;;;36.47;20.73;;;;;;;1.16;88.92;101064.34;5041107;28;20557;-67
2021/01/10 05:34:05;;;;;;;34.50;17.70;;;;;;;1.16;88.27;101059.09;5042880;28;20501;-67
2021/01/10 05:36:32;;;;;;;30.10;17.33;;;;;;;1.16;87.78;101067.00;5060358;28;20512;-67
2021/01/10 05:39:14;;;;;;;33.07;17.20;;;;;;;1.13;87.53;101066.19;5062566;28;20473;-66
2021/01/10 05:41:42;;;;;;;33.13;17.40;;;;;;;1.06;88.06;101072.63;5061193;28;20503;-67
2021/01/10 05:44:08;;;;;;;26.40;17.63;;;;;;;0.99;88.79;101079.06;5062465;28;20437;-67
2021/01/10 05:46:35;;;;;;;27.10;16.97;;;;;;;1.04;88.57;101078.84;5060613;28;20507;-67
2021/01/10 05:49:02;;;;;;;26.27;15.27;;;;;;;1.10;87.85;101082.13;5062738;28;20480;-67
2021/01/10 05:51:29;;;;;;;26.47;15.73;;;;;;;1.13;87.37;101086.41;5060515;28;20520;-66
2021/01/10 05:53:55;;;;;;;25.23;15.03;;;;;;;1.09;88.07;101082.16;5062021;28;20548;-67
2021/01/10 05:56:22;;;;;;;27.47;15.10;;;;;;;1.06;88.17;101085.78;5060612;28;20488;-67
2021/01/10 05:58:54;;;;;;;27.30;16.87;;;;;;;1.21;87.37;101073.78;5061305;28;20511;-67
2021/01/10 06:01:21;;;;;;;26.63;16.07;;;;;;;1.27;86.02;101083.25;5061119;28;20484;-67
2021/01/10 06:03:49;;;;;;;26.50;14.40;;;;;;;1.25;86.00;101077.16;5062530;28;20480;-66
2021/01/10 06:06:15;;;;;;;24.37;15.80;;;;;;;1.21;86.42;101086.97;5060248;28;20576;-67
2021/01/10 06:08:41;;;;;;;30.63;16.30;;;;;;;0.98;87.67;101093.13;5062001;28;20495;-67
2021/01/10 06:11:25;;;;;;;29.73;14.87;;;;;;;0.89;88.62;101093.47;5060983;28;20927;-66
2021/01/10 06:13:57;;;;;;;27.30;15.83;;;;;;;1.06;87.68;101093.69;5062342;28;20487;-67
2021/01/10 06:16:24;;;;;;;27.50;15.47;;;;;;;1.15;87.48;101089.84;5064583;28;20481;-67
2021/01/10 06:18:54;;;;;;;28.80;16.63;;;;;;;1.01;88.12;101082.47;5066502;28;20582;-68
2021/01/10 06:21:22;;;;;;;25.10;14.50;;;;;;;0.86;89.03;101098.84;5064085;28;20504;-67
2021/01/10 06:23:51;;;;;;;30.60;16.77;;;;;;;0.99;88.48;101097.47;5065312;28;20476;-66
2021/01/10 06:26:19;;;;;;;23.27;14.73;;;;;;;1.00;87.83;101095.69;5063974;28;20516;-67
2021/01/10 06:28:53;;;;;;;28.07;15.90;;;;;;;0.94;86.97;101092.38;5065978;28;20441;-66
2021/01/10 06:31:24;;;;;;;28.40;16.20;;;;;;;0.90;87.62;101097.81;5064940;28;20523;-66
2021/01/10 06:33:56;;;;;;;31.57;17.33;;;;;;;0.96;87.49;101104.66;5065861;28;20484;-67
2021/01/10 06:36:23;;;;;;;28.60;18.20;;;;;;;0.99;87.70;101092.22;5064509;28;20963;-66
2021/01/10 06:38:52;;;;;;;32.70;16.73;;;;;;;0.96;87.59;101099.38;5065726;28;20468;-67
2021/01/10 06:41:34;;;;;;;28.70;16.80;;;;;;;1.02;87.19;101091.22;5064905;28;20510;-67
2021/01/10 06:44:00;;;;;;;28.70;16.23;;;;;;;0.95;87.46;101095.88;5046341;28;20430;-67
2021/01/10 06:46:26;;;;;;;30.40;17.03;;;;;;;0.94;87.78;101095.00;5044390;28;20501;-66
2021/01/10 06:48:54;;;;;;;30.10;16.47;;;;;;;0.87;88.02;101096.16;5046244;28;20450;-67
2021/01/10 06:51:22;;;;;;;27.50;14.73;;;;;;;0.87;88.31;101090.91;5060062;28;20512;-67
2021/01/10 06:53:48;;;;;;;32.83;17.87;;;;;;;0.90;88.10;101093.44;5064180;28;20519;-66
2021/01/10 06:56:14;;;;;;;30.33;15.70;;;;;;;1.03;86.73;101092.97;5056254;28;20500;-65
2021/01/10 06:59:01;;;;;;;29.00;17.23;;;;;;;0.94;87.33;101083.63;5063643;28;20528;-65
2021/01/10 07:02:01;;;;;;;30.40;17.30;;;;;;;0.91;88.07;101087.22;5061476;28;21069;-66
2021/01/10 07:04:59;;;;;;;29.43;16.57;;;;;;;0.82;87.91;101087.59;5061032;28;20445;-65
2021/01/10 07:07:37;;;;;;;29.93;18.10;;;;;;;0.82;88.53;101092.84;5056067;28;20504;-65
2021/01/10 07:10:05;;;;;;;32.23;19.57;;;;;;;0.91;88.04;101075.84;5062967;28;20916;-65
2021/01/10 07:12:32;;;;;;;33.80;19.97;;;;;;;0.98;87.93;101079.09;5061176;28;20491;-65
2021/01/10 07:15:29;;;;;;;35.43;19.60;;;;;;;0.81;89.03;101088.50;5062833;28;20433;-68
2021/01/10 07:18:10;;;;;;;35.50;20.57;;;;;;;0.81;89.07;101092.91;5061494;28;21093;-67
2021/01/10 07:20:42;;;;;;;39.87;20.67;;;;;;;0.86;89.11;101088.31;5061131;28;20500;-66
2021/01/10 07:23:28;;;;;;;41.67;21.10;;;;;;;0.68;89.96;101090.72;5061911;28;20449;-66
2021/01/10 07:25:55;;;;;;;40.67;23.50;;;;;;;0.61;90.53;101083.97;5060854;28;20500;-66
2021/01/10 07:28:41;;;;;;;40.10;22.83;;;;;;;0.54;90.95;101090.38;5062399;28;20514;-67
2021/01/10 07:31:24;;;;;;;46.03;23.40;;;;;;;0.60;90.82;101086.66;5060171;28;20472;-66
2021/01/10 07:34:10;;;;;;;44.80;23.13;;;;;;;0.68;91.13;101096.00;5041879;28;20513;-66
2021/01/10 07:36:57;;;;;;;45.23;25.17;;;;;;;0.68;91.06;101088.09;5040122;28;20565;-66
2021/01/10 07:39:27;;;;;;;46.80;24.43;;;;;;;0.66;91.19;101091.69;5039378;28;20843;-66
2021/01/10 07:41:55;;;;;;;49.33;24.00;;;;;;;0.74;91.12;101090.47;5053626;28;20536;-66
2021/01/10 07:44:44;;;;;;;43.47;23.40;;;;;;;0.79;90.87;101106.13;5060088;28;20524;-65
2021/01/10 07:47:10;;;;;;;45.33;23.70;;;;;;;0.83;90.48;101104.22;5062255;28;20899;-67
2021/01/10 07:49:51;;;;;;;43.77;22.47;;;;;;;1.02;90.29;101110.50;5064555;28;20461;-66
2021/01/10 07:52:51;;;;;;;41.97;22.47;;;;;;;0.94;90.38;101110.81;5061683;28;20519;-66
2021/01/10 07:55:31;;;;;;;44.07;23.20;;;;;;;1.03;89.95;101109.59;5063298;28;20453;-66
2021/01/10 07:58:17;;;;;;;35.67;21.93;;;;;;;1.09;89.97;101111.13;5053767;28;20531;-65
2021/01/10 08:00:53;;;;;;;41.80;23.70;;;;;;;1.06;90.54;101114.75;5049958;28;20488;-67
2021/01/10 08:03:23;;;;;;;40.53;23.43;;;;;;;1.10;90.55;101100.53;5063850;28;20437;-67
2021/01/10 08:05:57;;;;;;;43.83;22.53;;;;;;;1.21;89.60;101101.91;5062934;28;20842;-66
2021/01/10 08:08:41;;;;;;;40.33;20.93;;;;;;;1.30;88.62;101101.53;5062971;28;20490;-66
2021/01/10 08:11:08;;;;;;;35.40;19.63;;;;;;;1.30;88.43;101114.72;5061326;28;20496;-67
2021/01/10 08:13:35;;;;;;;31.80;18.40;;;;;;;1.26;88.38;101113.97;5064014;28;20487;-66
2021/01/10 08:16:04;;;;;;;31.00;19.47;;;;;;;1.34;88.06;101118.09;5062237;28;20503;-66
2021/01/10 08:18:35;;;;;;;31.60;20.67;;;;;;;1.19;88.74;101115.13;5064010;28;20440;-66
2021/01/10 08:21:03;;;;;;;33.53;19.47;;;;;;;1.26;88.34;101113.97;5062200;28;20505;-66
2021/01/10 08:23:31;;;;;;;36.83;20.33;;;;;;;1.39;88.14;101117.00;5063048;28;20491;-66
2021/01/10 08:26:07;;;;;;;36.70;19.30;;;;;;;1.23;89.14;101119.38;5062453;28;20473;-66
2021/01/10 08:28:35;;;;;;;35.83;21.03;;;;;;;1.25;88.49;101119.31;5059567;28;20499;-66
2021/01/10 08:31:02;;;;;;;34.53;21.87;;;;;;;1.29;88.39;101115.66;5058963;28;20499;-66
2021/01/10 08:33:29;;;;;;;34.53;18.30;;;;;;;1.59;90.14;101128.53;5063219;28;20560;-66
2021/01/10 08:36:08;;;;;;;41.27;21.90;;;;;;;2.01;nan;101120.63;5061473;28;20469;-66
2021/01/10 08:38:34;;;;;;;32.93;20.10;;;;;;;2.21;86.94;101129.50;5062811;28;20453;-66
2021/01/10 08:41:00;;;;;;;30.97;20.10;;;;;;;2.46;85.17;101124.00;5061003;28;21023;-66
2021/01/10 08:43:26;;;;;;;29.30;18.50;;;;;;;2.05;85.37;101134.56;5063232;28;20476;-66
2021/01/10 08:45:53;;;;;;;28.90;17.20;;;;;;;1.88;85.83;101125.56;5058559;28;20540;-66
2021/01/10 08:48:20;;;;;;;28.23;18.40;;;;;;;1.74;86.22;101127.91;5059197;28;20467;-67
2021/01/10 08:50:46;;;;;;;28.97;18.20;;;;;;;1.76;86.42;101127.84;5060501;28;20505;-67
2021/01/10 08:53:12;;;;;;;35.50;18.77;;;;;;;1.81;86.57;101131.16;5061186;28;20957;-66
2021/01/10 08:55:40;;;;;;;30.30;20.17;;;;;;;1.77;86.07;101140.97;5060659;28;20489;-66
2021/01/10 08:58:07;;;;;;;30.07;17.40;;;;;;;1.66;86.38;101136.13;5061234;28;20464;-67
2021/01/10 09:00:34;;;;;;;27.73;17.70;;;;;;;1.65;86.64;101139.69;5060345;28;20473;-67
2021/01/10 09:03:19;;;;;;;32.67;19.23;;;;;;;1.60;87.02;101139.00;5061618;28;20448;-66
2021/01/10 09:05:49;;;;;;;24.27;16.00;;;;;;;1.72;87.38;101140.31;5058766;28;20507;-66
2021/01/10 09:08:36;;;;;;;27.17;18.30;;;;;;;1.88;85.52;101145.81;5061024;28;20464;-67
2021/01/10 09:11:06;;;;;;;32.33;19.57;;;;;;;1.62;86.15;101136.31;5055587;28;20957;-66
2021/01/10 09:13:33;;;;;;;30.27;18.57;;;;;;;1.77;86.62;101140.09;5058000;28;20493;-66
2021/01/10 09:16:02;;;;;;;28.17;18.70;;;;;;;1.72;86.67;101142.06;5057074;28;20473;-67
2021/01/10 09:18:31;;;;;;;28.60;19.00;;;;;;;1.60;86.97;101133.75;5060471;28;20552;-66
2021/01/10 09:21:00;;;;;;;30.23;19.50;;;;;;;1.59;87.18;101128.53;5059791;28;20476;-66
2021/01/10 09:23:27;;;;;;;30.60;18.87;;;;;;;1.64;87.16;101139.75;5061263;28;20550;-66
2021/01/10 09:25:53;;;;;;;27.93;17.77;;;;;;;1.90;86.75;101133.41;5059537;28;20504;-66
2021/01/10 09:28:21;;;;;;;31.03;19.70;;;;;;;1.97;86.41;101139.28;5059795;28;20476;-66
2021/01/10 09:30:51;;;;;;;36.40;20.43;;;;;;;1.95;86.63;101138.50;5057962;28;21063;-66
2021/01/10 09:33:22;;;;;;;32.40;20.90;;;;;;;1.80;86.92;101145.25;5060009;28;20491;-66
2021/01/10 09:35:50;;;;;;;35.37;19.63;;;;;;;1.84;86.79;101145.06;5059957;28;20473;-66
2021/01/10 09:38:18;;;;;;;33.83;22.53;;;;;;;1.88;86.20;101133.47;5058842;28;20492;-66
2021/01/10 09:41:00;;;;;;;34.60;21.40;;;;;;;1.83;85.88;101142.50;5057898;28;20469;-66
2021/01/10 09:43:36;;;;;;;32.03;20.83;;;;;;;1.62;87.03;101141.59;5059777;28;20907;-66
2021/01/10 09:46:03;;;;;;;29.47;20.10;;;;;;;1.89;86.22;101144.88;5058125;28;20977;-66
2021/01/10 09:48:31;;;;;;;28.00;19.00;;;;;;;1.87;86.24;101136.16;5059150;28;20821;-65
2021/01/10 09:50:58;;;;;;;28.67;18.80;;;;;;;2.08;86.01;101142.31;5058853;28;20496;-65
2021/01/10 09:53:24;;;;;;;27.30;18.20;;;;;;;2.10;85.42;101142.25;5054470;28;20552;-69
2021/01/10 09:55:51;;;;;;;28.33;17.90;;;;;;;2.07;85.45;101146.75;5059897;28;20571;-69
2021/01/10 09:58:17;;;;;;;31.03;18.70;;;;;;;2.38;84.51;101140.19;5059784;28;20495;-68
2021/01/10 10:00:56;;;;;;;29.60;16.93;;;;;;;2.25;84.11;101134.56;5058870;28;20477;-67
2021/01/10 10:03:23;;;;;;;26.57;18.23;;;;;;;2.52;84.13;101134.31;5059402;28;20441;-69
2021/01/10 10:05:59;;;;;;;27.73;18.93;;;;;;;2.64;83.68;101138.19;5057994;28;20488;-69
2021/01/10 10:08:25;;;;;;;26.60;18.60;;;;;;;2.62;82.51;101140.91;5056741;28;20480;-68
2021/01/10 10:10:52;;;;;;;28.10;19.30;;;;;;;2.75;83.34;101137.72;5057481;28;20473;-68
2021/01/10 10:13:25;;;;;;;29.83;18.63;;;;;;;2.99;82.47;101133.09;5059077;28;20483;-69
2021/01/10 10:15:54;;;;;;;27.00;18.43;;;;;;;3.01;82.42;101132.09;5055476;28;20494;-71
2021/01/10 10:18:22;;;;;;;27.50;18.17;;;;;;;2.94;81.79;101127.16;5058805;28;20471;-68
2021/01/10 10:20:48;;;;;;;28.27;17.20;;;;;;;2.59;82.94;101129.63;5056075;28;20473;-72
2021/01/10 10:23:16;;;;;;;28.43;17.67;;;;;;;2.57;82.48;101121.75;5053195;28;20504;-69
2021/01/10 10:25:43;;;;;;;30.00;18.57;;;;;;;2.41;83.37;101133.91;5056067;28;20554;-66
2021/01/10 10:28:09;;;;;;;27.60;16.93;;;;;;;2.35;83.19;101127.13;5059329;28;20449;-71
2021/01/10 10:30:39;;;;;;;30.10;18.63;;;;;;;2.41;83.81;101125.97;5057520;28;20476;-71
2021/01/10 10:33:06;;;;;;;28.33;17.10;;;;;;;2.52;83.29;101118.47;5055697;28;21000;-71
2021/01/10 10:35:33;;;;;;;23.13;15.60;;;;;;;2.53;83.03;101114.88;5052003;28;20507;-72
2021/01/10 10:37:59;;;;;;;25.70;16.40;;;;;;;2.48;83.59;101116.00;5057116;28;20476;-70
2021/01/10 10:40:27;;;;;;;23.87;14.43;;;;;;;2.56;82.86;101117.38;5054955;28;20499;-69
2021/01/10 10:42:53;;;;;;;19.80;14.60;;;;;;;2.51;82.12;101118.53;5058796;28;20484;-68
2021/01/10 10:45:19;;;;;;;17.83;13.90;;;;;;;2.75;82.48;101114.78;5058124;28;20441;-70
2021/01/10 10:47:45;;;;;;;20.23;12.53;;;;;;;2.69;81.56;101117.72;5058758;28;20479;-71
2021/01/10 10:50:12;;;;;;;14.63;11.07;;;;;;;2.62;82.06;101118.91;5058166;28;20465;-70
2021/01/10 10:52:38;;;;;;;15.40;11.60;;;;;;;2.60;82.02;101112.84;5058935;28;20499;-71
2021/01/10 10:55:06;;;;;;;15.87;10.80;;;;;;;2.49;81.97;101123.88;5057436;28;20535;-70
2021/01/10 10:57:33;;;;;;;14.23;9.13;;;;;;;2.27;82.69;101116.03;5059041;28;21208;-71
2021/01/10 10:59:59;;;;;;;15.33;10.70;;;;;;;2.42;82.87;101122.44;5060247;28;20460;-71
2021/01/10 11:02:25;;;;;;;13.90;10.10;;;;;;;2.42;83.08;101119.78;5060650;28;20526;-70
2021/01/10 11:04:54;;;;;;;17.67;10.00;;;;;;;2.27;83.44;101116.03;5062832;28;20448;-69
2021/01/10 11:07:21;;;;;;;13.47;9.10;;;;;;;2.59;83.37;101114.63;5060588;28;21009;-70
2021/01/10 11:09:47;;;;;;;17.90;12.80;;;;;;;2.70;81.39;101114.13;5062741;28;20637;-70
2021/01/10 11:12:32;;;;;;;14.73;10.90;;;;;;;2.59;82.36;101109.34;5060748;28;20484;-69
2021/01/10 11:14:59;;;;;;;15.57;11.93;;;;;;;2.64;82.47;101115.28;4997859;28;20487;-67
2021/01/10 11:17:25;;;;;;;14.63;10.87;;;;;;;2.77;82.43;101114.72;4996085;28;20491;-68
2021/01/10 11:19:51;;;;;;;16.80;12.37;;;;;;;2.90;82.07;101107.09;5001039;28;20467;-68
2021/01/10 11:22:18;;;;;;;16.33;11.00;;;;;;;2.76;82.28;101108.59;4997694;28;20486;-69
2021/01/10 11:24:44;;;;;;;22.73;12.20;;;;;;;2.89;81.71;101108.88;5000192;28;20448;-70
2021/01/10 11:27:10;;;;;;;14.70;11.40;;;;;;;2.56;82.41;101103.34;4998382;28;20482;-67